Aquadale, North Carolina
Current Conditions -  °F | °C
As of 1:35 AM on Tuesday 21 Oct 2014 (Local Time) from KVUJ Reporting Station
Overcast Overcast  
Wind Chill: 13°   Ceiling: 11000
Heat Index: 13°   Visibility: 10mi
Dew Point: 13°   Wind: 0mph
Humidity: 99%   Direction: NA
Pressure: 30.01"   Gusts: NA
Location:  35.2152°N, 80.1663°W
Report Text: KVUJ 210535Z AUTO 00000KT 10SM OVC110 13/13 A3001 RMK AO2 LTG DSNT E T01270125
Loading
Personal Weather Stations






























Interactive Weather Map
Tropical Storm Tracking
New forecast layout! Learn more

10-Day Weather Forecast

Advertisements
Track Severe Weather on mobile